createdAt,value
2022-12-25T00:00:44.978Z,99456.03
2022-12-25T00:05:47.603Z,99444.81
2022-12-25T00:11:05.275Z,99427.16
2022-12-25T00:16:16.025Z,99478.06
2022-12-25T00:21:20.174Z,99491.94
2022-12-25T00:26:25.527Z,99503.16
2022-12-25T00:31:28.569Z,99499.94
2022-12-25T00:36:36.258Z,99503.38
2022-12-25T00:42:00.961Z,99501.47
2022-12-25T00:47:03.864Z,99534.25
2022-12-25T00:52:06.634Z,99526.84
2022-12-25T00:57:09.619Z,99535.06
2022-12-25T01:02:24.390Z,99510.25
2022-12-25T01:07:27.617Z,99555.03
2022-12-25T01:12:35.062Z,99563.28
2022-12-25T01:17:37.796Z,99534.44
2022-12-25T01:22:40.707Z,99566.16
2022-12-25T01:27:43.865Z,99569.78
2022-12-25T01:32:46.419Z,99564.56
2022-12-25T01:37:50.012Z,99571.97
2022-12-25T01:42:52.886Z,99592.47
2022-12-25T01:47:55.500Z,99593.41
2022-12-25T01:52:58.634Z,99593.00
2022-12-25T01:58:01.417Z,99587.63
2022-12-25T02:03:04.480Z,99618.53
2022-12-25T02:08:12.755Z,99624.00
2022-12-25T02:13:18.588Z,99625.28
2022-12-25T02:18:56.556Z,99636.19
2022-12-25T02:24:11.195Z,99633.66
2022-12-25T02:29:30.825Z,99647.41
2022-12-25T02:35:10.616Z,99654.88
2022-12-25T02:40:21.297Z,99649.09
2022-12-25T02:46:05.708Z,99653.63
2022-12-25T02:51:30.138Z,99675.09
2022-12-25T02:56:53.181Z,99687.25
2022-12-25T03:02:15.250Z,99665.47
2022-12-25T03:07:22.787Z,99690.06
2022-12-25T03:12:39.223Z,99676.94
2022-12-25T03:17:42.319Z,99703.31
2022-12-25T03:23:05.223Z,99707.72
2022-12-25T03:28:07.788Z,99704.81
2022-12-25T03:33:45.103Z,99711.84
2022-12-25T03:39:29.668Z,99720.88
2022-12-25T03:44:53.597Z,99735.66
2022-12-25T03:50:21.809Z,99731.59
2022-12-25T03:55:44.619Z,99715.44
2022-12-25T04:01:05.661Z,99730.66
2022-12-25T04:06:27.084Z,99749.66
2022-12-25T04:11:48.104Z,99759.41
2022-12-25T04:17:09.472Z,99752.56
2022-12-25T04:22:30.663Z,99770.59
2022-12-25T04:27:51.687Z,99770.66
2022-12-25T04:33:19.513Z,99778.59
2022-12-25T04:38:22.398Z,99780.28
2022-12-25T04:43:25.419Z,99787.69
2022-12-25T04:48:30.350Z,99767.94
2022-12-25T04:53:32.923Z,99801.50
2022-12-25T04:58:35.761Z,99817.06
2022-12-25T05:03:38.418Z,99825.59
2022-12-25T05:08:41.065Z,99834.38
2022-12-25T05:13:43.869Z,99839.94
2022-12-25T05:18:49.566Z,99867.63
2022-12-25T05:23:55.036Z,99865.19
2022-12-25T05:28:57.695Z,99869.63
2022-12-25T05:34:00.253Z,99877.19
2022-12-25T05:39:02.839Z,99895.56
2022-12-25T05:44:05.452Z,99901.63
2022-12-25T05:49:08.578Z,99905.44
2022-12-25T05:54:11.217Z,99920.34
2022-12-25T05:59:13.733Z,99888.41
2022-12-25T06:04:16.374Z,99885.16
2022-12-25T06:09:19.374Z,99909.78
2022-12-25T06:14:22.087Z,99920.34
2022-12-25T06:19:24.866Z,99941.31
2022-12-25T06:24:27.517Z,99902.97
2022-12-25T06:29:30.097Z,99941.34
2022-12-25T06:34:32.645Z,99944.47
2022-12-25T06:39:35.301Z,99949.97
2022-12-25T06:44:38.400Z,99953.50
2022-12-25T06:49:40.951Z,99943.38
2022-12-25T06:54:43.830Z,99950.94
2022-12-25T06:59:52.970Z,99967.53
2022-12-25T07:04:58.121Z,99982.47
2022-12-25T07:10:00.756Z,99984.00
2022-12-25T07:15:04.223Z,99977.81
2022-12-25T07:20:07.593Z,99983.34
2022-12-25T07:25:10.279Z,99983.69
2022-12-25T07:30:13.432Z,100006.03
2022-12-25T07:35:16.476Z,100010.03
2022-12-25T07:40:19.123Z,100015.28
2022-12-25T07:45:21.800Z,99997.78
2022-12-25T07:50:24.522Z,100034.75
2022-12-25T07:55:27.100Z,100013.34
2022-12-25T08:00:32.878Z,100036.13
2022-12-25T08:05:35.575Z,100028.44
2022-12-25T08:10:38.182Z,100055.09
2022-12-25T08:15:41.409Z,100072.66
2022-12-25T08:20:44.147Z,100066.22
2022-12-25T08:25:46.771Z,100074.88
2022-12-25T08:30:49.475Z,100059.72
2022-12-25T08:35:52.073Z,100088.03
2022-12-25T08:40:54.690Z,100087.72
2022-12-25T08:45:57.502Z,100056.19
2022-12-25T08:51:00.992Z,100069.25
2022-12-25T08:56:07.366Z,100085.63
2022-12-25T09:01:10.960Z,100092.53
2022-12-25T09:06:16.141Z,100101.66
2022-12-25T09:11:20.786Z,100103.69
2022-12-25T09:16:23.552Z,100069.47
2022-12-25T09:21:26.274Z,100115.09
2022-12-25T09:26:28.961Z,100114.78
2022-12-25T09:31:31.733Z,100115.84
2022-12-25T09:36:34.412Z,100092.22
2022-12-25T09:41:52.012Z,100134.06
2022-12-25T09:46:59.428Z,100132.16
2022-12-25T09:52:09.013Z,100126.09
2022-12-25T09:57:13.939Z,100140.13
2022-12-25T10:02:37.588Z,100135.34
2022-12-25T10:08:04.508Z,100155.53
2022-12-25T10:13:33.600Z,100132.00
2022-12-25T10:18:39.144Z,100160.44
2022-12-25T10:23:47.622Z,100158.22
2022-12-25T10:29:01.884Z,100176.72
2022-12-25T10:34:06.321Z,100155.66
2022-12-25T10:39:16.357Z,100175.06
2022-12-25T10:44:21.681Z,100165.59
2022-12-25T10:49:29.683Z,100177.78
2022-12-25T10:54:37.560Z,100171.31
2022-12-25T10:59:46.175Z,100180.59
2022-12-25T11:04:49.700Z,100158.50
2022-12-25T11:10:04.596Z,100188.50
2022-12-25T11:15:33.956Z,100185.25
2022-12-25T11:20:40.023Z,100185.34
2022-12-25T11:25:45.017Z,100198.22
2022-12-25T11:30:53.507Z,100202.31
2022-12-25T11:35:58.554Z,100175.47
2022-12-25T11:41:04.607Z,100209.84
2022-12-25T11:46:39.249Z,100216.09
2022-12-25T11:51:46.063Z,100192.59
2022-12-25T11:56:50.121Z,100215.59
2022-12-25T12:01:58.969Z,100202.56
2022-12-25T12:07:27.698Z,100201.19
2022-12-25T12:12:48.493Z,100226.16
2022-12-25T12:17:51.615Z,100247.31
2022-12-25T12:22:54.502Z,100245.97
2022-12-25T12:28:05.383Z,100259.63
2022-12-25T12:33:20.726Z,100244.47
2022-12-25T12:38:24.783Z,100248.03
2022-12-25T12:43:32.262Z,100256.00
2022-12-25T12:48:41.466Z,100241.19
2022-12-25T12:53:44.164Z,100242.34
2022-12-25T12:58:51.239Z,100259.88
2022-12-25T13:04:20.178Z,100269.63
2022-12-25T13:10:00.801Z,100282.44
2022-12-25T13:15:03.578Z,100281.78
2022-12-25T13:20:17.777Z,100285.09
2022-12-25T13:25:22.721Z,100268.72
2022-12-25T13:30:25.735Z,100282.38
2022-12-25T13:35:28.311Z,100299.25
2022-12-25T13:40:31.035Z,100301.16
2022-12-25T13:45:35.079Z,100285.41
2022-12-25T13:50:37.898Z,100310.00
2022-12-25T13:55:42.521Z,100323.97
2022-12-25T14:00:53.359Z,100323.06
2022-12-25T14:06:26.292Z,100324.53
2022-12-25T14:11:31.395Z,100328.34
2022-12-25T14:16:34.735Z,100311.19
2022-12-25T14:21:41.875Z,100328.41
2022-12-25T14:26:44.480Z,100329.72
2022-12-25T14:31:47.684Z,100330.09
2022-12-25T14:36:53.337Z,100345.91
2022-12-25T14:41:56.668Z,100350.91
2022-12-25T14:47:14.981Z,100361.03
2022-12-25T14:52:26.754Z,100370.34
2022-12-25T14:57:31.337Z,100361.97
2022-12-25T15:02:45.119Z,100368.34
2022-12-25T15:08:18.541Z,100361.09
2022-12-25T15:13:21.382Z,100368.44
2022-12-25T15:18:26.459Z,100370.81
2022-12-25T15:23:29.139Z,100369.22
2022-12-25T15:28:31.672Z,100381.88
2022-12-25T15:33:36.092Z,100365.91
2022-12-25T15:38:40.628Z,100384.88
2022-12-25T15:43:43.173Z,100382.56
2022-12-25T15:48:45.745Z,100386.69
2022-12-25T15:53:48.433Z,100380.66
2022-12-25T15:58:51.095Z,100394.69
2022-12-25T16:03:53.772Z,100407.97
2022-12-25T16:08:56.614Z,100387.88
2022-12-25T16:13:59.177Z,100408.59
2022-12-25T16:19:01.784Z,100422.47
2022-12-25T16:24:04.684Z,100424.03
2022-12-25T16:29:07.880Z,100420.09
2022-12-25T16:34:10.723Z,100422.03
2022-12-25T16:39:13.275Z,100416.59
2022-12-25T16:44:15.871Z,100428.22
2022-12-25T16:49:18.479Z,100433.88
2022-12-25T16:54:21.092Z,100444.59
2022-12-25T16:59:23.687Z,100430.44
2022-12-25T17:04:27.976Z,100442.47
2022-12-25T17:09:31.522Z,100441.38
2022-12-25T17:14:35.137Z,100444.16
2022-12-25T17:19:38.214Z,100445.94
2022-12-25T17:24:41.696Z,100451.88
2022-12-25T17:29:45.170Z,100448.19
2022-12-25T17:34:47.905Z,100433.72
2022-12-25T17:39:50.451Z,100469.97
2022-12-25T17:44:53.062Z,100475.00
2022-12-25T17:49:55.686Z,100464.53
2022-12-25T17:54:58.217Z,100454.75
2022-12-25T18:00:00.824Z,100476.66
2022-12-25T18:05:04.120Z,100464.34
2022-12-25T18:10:07.419Z,100470.81
2022-12-25T18:15:10.772Z,100477.78
2022-12-25T18:20:13.459Z,100488.47
2022-12-25T18:25:16.167Z,100489.84
2022-12-25T18:30:19.584Z,100487.88
2022-12-25T18:35:22.361Z,100487.94
2022-12-25T18:40:24.946Z,100498.94
2022-12-25T18:45:27.638Z,100512.59
2022-12-25T18:50:30.666Z,100495.84
2022-12-25T18:55:33.624Z,100430.69
2022-12-25T19:00:36.276Z,100515.78
2022-12-25T19:05:40.509Z,100522.59
2022-12-25T19:10:44.510Z,100525.28
2022-12-25T19:15:47.181Z,100502.50
2022-12-25T19:20:49.954Z,100538.06
2022-12-25T19:25:53.645Z,100537.94
2022-12-25T19:30:59.755Z,100538.41
2022-12-25T19:36:08.450Z,100553.19
2022-12-25T19:41:17.127Z,100552.28
2022-12-25T19:46:23.433Z,100550.47
2022-12-25T19:51:28.912Z,100550.75
2022-12-25T19:56:32.705Z,100519.72
2022-12-25T20:01:35.656Z,100549.69
2022-12-25T20:06:40.848Z,100545.81
2022-12-25T20:11:43.672Z,100554.56
2022-12-25T20:16:46.515Z,100545.66
2022-12-25T20:21:49.106Z,100555.19
2022-12-25T20:26:58.558Z,100553.50
2022-12-25T20:32:01.724Z,100553.16
2022-12-25T20:37:04.367Z,100560.22
2022-12-25T20:42:08.567Z,100565.09
2022-12-25T20:47:11.178Z,100569.00
2022-12-25T20:52:13.829Z,100560.56
2022-12-25T20:57:16.462Z,100564.91
2022-12-25T21:02:34.593Z,100566.59
2022-12-25T21:07:38.209Z,100575.56
2022-12-25T21:12:40.799Z,100585.78
2022-12-25T21:17:43.434Z,100543.78
2022-12-25T21:22:46.127Z,100592.13
2022-12-25T21:27:48.771Z,100597.25
2022-12-25T21:33:09.937Z,100586.25
2022-12-25T21:38:12.636Z,100580.28
2022-12-25T21:43:15.297Z,100590.31
2022-12-25T21:48:17.886Z,100589.63
2022-12-25T21:53:20.913Z,100571.06
2022-12-25T21:58:23.796Z,100570.13
2022-12-25T22:03:26.506Z,100598.13
2022-12-25T22:08:33.050Z,100594.59
2022-12-25T22:13:54.330Z,100597.38
2022-12-25T22:19:15.852Z,100598.97
2022-12-25T22:24:18.386Z,100591.72
2022-12-25T22:29:20.904Z,100595.56
2022-12-25T22:34:24.156Z,100595.56
2022-12-25T22:39:27.407Z,100590.16
2022-12-25T22:44:32.688Z,100600.56
2022-12-25T22:49:35.325Z,100597.06
2022-12-25T22:54:38.370Z,100599.84
2022-12-25T22:59:41.098Z,100606.25
2022-12-25T23:04:43.611Z,100614.53
2022-12-25T23:09:46.271Z,100611.06
2022-12-25T23:14:48.894Z,100609.19
2022-12-25T23:20:10.178Z,100606.84
2022-12-25T23:25:33.952Z,100633.00
2022-12-25T23:30:36.550Z,100638.66
2022-12-25T23:35:39.629Z,100627.94
2022-12-25T23:40:42.181Z,100635.09
2022-12-25T23:45:44.720Z,100638.34
2022-12-25T23:50:47.298Z,100652.13
2022-12-25T23:55:55.693Z,100652.22
